createdAt,value
2022-08-26T00:01:39.377Z,98053.75
2022-08-26T00:04:05.943Z,98056.47
2022-08-26T00:06:33.597Z,98047.78
2022-08-26T00:09:00.184Z,98050.50
2022-08-26T00:11:27.219Z,98048.19
2022-08-26T00:13:55.918Z,98053.66
2022-08-26T00:16:28.118Z,98046.63
2022-08-26T00:18:54.996Z,98053.13
2022-08-26T00:21:21.920Z,98046.44
2022-08-26T00:23:49.975Z,98054.06
2022-08-26T00:26:16.410Z,98053.66
2022-08-26T00:28:42.953Z,98061.59
2022-08-26T00:31:11.065Z,98058.88
2022-08-26T00:33:38.527Z,98055.66
2022-08-26T00:36:05.907Z,98058.47
2022-08-26T00:38:32.518Z,98051.78
2022-08-26T00:40:58.983Z,98051.78
2022-08-26T00:43:26.690Z,98049.47
2022-08-26T00:46:11.117Z,98052.50
2022-08-26T00:48:39.879Z,98049.25
2022-08-26T00:51:18.201Z,98052.97
2022-08-26T00:53:51.938Z,98057.31
2022-08-26T00:56:25.988Z,98058.19
2022-08-26T00:58:56.291Z,98055.06
2022-08-26T01:01:23.112Z,98065.53
2022-08-26T01:03:49.845Z,98059.66
2022-08-26T01:06:16.890Z,98065.38
2022-08-26T01:08:43.403Z,98060.38
2022-08-26T01:11:12.347Z,98066.31
2022-08-26T01:13:39.751Z,98059.44
2022-08-26T01:16:10.620Z,98056.94
2022-08-26T01:18:40.743Z,98051.81
2022-08-26T01:21:16.558Z,98055.56
2022-08-26T01:23:48.219Z,98056.50
2022-08-26T01:26:25.212Z,98051.28
2022-08-26T01:28:56.625Z,98055.66
2022-08-26T01:31:26.724Z,98058.28
2022-08-26T01:34:02.263Z,98059.09
2022-08-26T01:36:29.463Z,98056.50
2022-08-26T01:38:55.923Z,98056.50
2022-08-26T01:41:27.458Z,98058.19
2022-08-26T01:43:57.179Z,98060.78
2022-08-26T01:46:28.817Z,98055.03
2022-08-26T01:48:58.768Z,98057.94
2022-08-26T01:51:27.686Z,98059.63
2022-08-26T01:53:54.765Z,98058.03
2022-08-26T01:56:23.626Z,98048.41
2022-08-26T01:58:59.686Z,98043.19
2022-08-26T02:01:29.198Z,98051.84
2022-08-26T02:04:05.466Z,98053.72
2022-08-26T02:06:33.052Z,98048.31
2022-08-26T02:09:02.976Z,98055.28
2022-08-26T02:11:30.511Z,98042.22
2022-08-26T02:14:08.587Z,98041.50
2022-08-26T02:16:40.129Z,98038.28
2022-08-26T02:19:16.964Z,98043.50
2022-08-26T02:21:51.286Z,98045.47
2022-08-26T02:24:28.676Z,98034.09
2022-08-26T02:26:57.585Z,98039.22
2022-08-26T02:29:32.997Z,98046.00
2022-08-26T02:31:59.499Z,98039.09
2022-08-26T02:34:31.060Z,98035.13
2022-08-26T02:37:03.826Z,98039.50
2022-08-26T02:39:31.899Z,98042.31
2022-08-26T02:41:59.146Z,98043.34
2022-08-26T02:44:27.248Z,98046.06
2022-08-26T02:46:54.601Z,98039.06
2022-08-26T02:49:22.256Z,98034.66
2022-08-26T02:51:49.507Z,98040.94
2022-08-26T02:54:18.106Z,98030.81
2022-08-26T02:56:45.480Z,98032.47
2022-08-26T02:59:15.334Z,98027.44
2022-08-26T03:01:42.539Z,98032.88
2022-08-26T03:04:11.740Z,98028.66
2022-08-26T03:06:39.293Z,98030.44
2022-08-26T03:09:08.589Z,98025.25
2022-08-26T03:11:35.647Z,98026.91
2022-08-26T03:14:03.812Z,98007.91
2022-08-26T03:16:37.622Z,98010.50
2022-08-26T03:19:06.886Z,98020.94
2022-08-26T03:21:35.636Z,98007.28
2022-08-26T03:24:03.582Z,98020.63
2022-08-26T03:26:30.395Z,98017.06
2022-08-26T03:29:15.482Z,98012.91
2022-08-26T03:31:43.297Z,98013.06
2022-08-26T03:34:09.759Z,98013.72
2022-08-26T03:36:37.755Z,98010.19
2022-08-26T03:39:04.433Z,98016.59
2022-08-26T03:41:32.633Z,98019.31
2022-08-26T03:44:01.711Z,98017.00
2022-08-26T03:46:28.705Z,98018.94
2022-08-26T03:48:55.217Z,98011.13
2022-08-26T03:51:21.699Z,98013.00
2022-08-26T03:53:48.336Z,98017.47
2022-08-26T03:56:15.190Z,98018.31
2022-08-26T03:58:42.902Z,98017.84
2022-08-26T04:01:09.634Z,98015.34
2022-08-26T04:03:54.502Z,98015.25
2022-08-26T04:06:21.003Z,98020.03
2022-08-26T04:08:48.303Z,98024.38
2022-08-26T04:11:23.269Z,98032.41
2022-08-26T04:13:49.986Z,98024.56
2022-08-26T04:16:17.646Z,98024.56
2022-08-26T04:18:46.633Z,98024.97
2022-08-26T04:21:15.371Z,98024.31
2022-08-26T04:23:47.587Z,98027.75
2022-08-26T04:26:15.147Z,98026.06
2022-08-26T04:28:41.723Z,98029.25
2022-08-26T04:31:12.208Z,98031.19
2022-08-26T04:33:41.649Z,98030.19
2022-08-26T04:36:08.516Z,98026.91
2022-08-26T04:38:35.492Z,98018.06
2022-08-26T04:41:03.315Z,98021.44
2022-08-26T04:43:32.015Z,98017.88
2022-08-26T04:46:01.238Z,98023.75
2022-08-26T04:48:32.724Z,98022.72
2022-08-26T04:51:03.042Z,98021.56
2022-08-26T04:53:31.898Z,98025.38
2022-08-26T04:55:58.358Z,98033.06
2022-08-26T04:58:25.628Z,98029.91
2022-08-26T05:00:53.829Z,98038.81
2022-08-26T05:03:20.988Z,98034.28
2022-08-26T05:05:49.988Z,98040.78
2022-08-26T05:08:18.571Z,98041.88
2022-08-26T05:10:49.482Z,98036.72
2022-08-26T05:13:18.751Z,98034.84
2022-08-26T05:15:48.043Z,98042.53
2022-08-26T05:18:21.248Z,98047.41
2022-08-26T05:20:54.541Z,98051.59
2022-08-26T05:23:22.891Z,98044.25
2022-08-26T05:25:53.592Z,98053.72
2022-08-26T05:28:22.935Z,98053.38
2022-08-26T05:30:50.319Z,98051.25
2022-08-26T05:33:17.579Z,98053.38
2022-08-26T05:35:45.199Z,98055.78
2022-08-26T05:38:15.586Z,98045.47
2022-08-26T05:40:44.993Z,98046.34
2022-08-26T05:43:13.389Z,98045.44
2022-08-26T05:45:46.215Z,98054.19
2022-08-26T05:48:14.718Z,98051.50
2022-08-26T05:50:48.690Z,98053.69
2022-08-26T05:53:20.166Z,98052.06
2022-08-26T05:55:49.553Z,98056.47
2022-08-26T05:58:20.133Z,98062.59
2022-08-26T06:00:56.694Z,98063.88
2022-08-26T06:03:23.153Z,98068.59
2022-08-26T06:05:49.629Z,98063.94
2022-08-26T06:08:16.399Z,98064.78
2022-08-26T06:10:59.847Z,98069.50
2022-08-26T06:13:27.727Z,98065.28
2022-08-26T06:15:59.489Z,98054.22
2022-08-26T06:18:32.637Z,98060.88
2022-08-26T06:20:59.785Z,98058.22
2022-08-26T06:23:47.651Z,98056.47
2022-08-26T06:26:16.083Z,98061.88
2022-08-26T06:28:45.494Z,98067.03
2022-08-26T06:31:13.060Z,98066.84
2022-08-26T06:33:39.720Z,98068.59
2022-08-26T06:36:06.847Z,98070.69
2022-08-26T06:38:33.445Z,98073.34
2022-08-26T06:41:00.900Z,98075.06
2022-08-26T06:43:29.554Z,98067.69
2022-08-26T06:46:04.746Z,98068.72
2022-08-26T06:48:31.916Z,98067.50
2022-08-26T06:51:22.313Z,98073.59
2022-08-26T06:53:52.341Z,98069.59
2022-08-26T06:56:21.941Z,98072.91
2022-08-26T06:58:48.447Z,98068.44
2022-08-26T07:01:27.254Z,98072.06
2022-08-26T07:03:57.113Z,98073.53
2022-08-26T07:06:25.254Z,98078.66
2022-08-26T07:08:54.145Z,98069.19
2022-08-26T07:11:20.945Z,98076.53
2022-08-26T07:13:47.914Z,98064.13
2022-08-26T07:16:17.414Z,98071.69
2022-08-26T07:18:45.266Z,98065.84
2022-08-26T07:21:15.186Z,98068.66
2022-08-26T07:23:41.694Z,98070.28
2022-08-26T07:26:12.626Z,98072.09
2022-08-26T07:28:39.435Z,98070.53
2022-08-26T07:31:09.637Z,98070.41
2022-08-26T07:33:38.609Z,98069.09
2022-08-26T07:36:07.231Z,98069.22
2022-08-26T07:38:34.821Z,98072.94
2022-08-26T07:41:01.868Z,98072.03
2022-08-26T07:43:29.884Z,98073.56
2022-08-26T07:45:56.758Z,98076.91
2022-08-26T07:48:23.687Z,98073.81
2022-08-26T07:50:52.612Z,98078.56
2022-08-26T07:53:21.270Z,98073.34
2022-08-26T07:55:49.251Z,98075.56
2022-08-26T07:58:17.188Z,98073.09
2022-08-26T08:00:43.657Z,98071.19
2022-08-26T08:03:12.610Z,98069.38
2022-08-26T08:05:41.293Z,98064.06
2022-08-26T08:08:27.145Z,98069.84
2022-08-26T08:10:56.526Z,98063.63
2022-08-26T08:13:24.295Z,98064.59
2022-08-26T08:15:50.992Z,98058.56
2022-08-26T08:18:20.562Z,98060.66
2022-08-26T08:20:59.426Z,98058.16
2022-08-26T08:23:32.820Z,98060.06
2022-08-26T08:26:08.633Z,98064.97
2022-08-26T08:28:36.229Z,98068.22
2022-08-26T08:31:02.907Z,98056.84
2022-08-26T08:33:33.537Z,98056.03
2022-08-26T08:36:00.802Z,98052.44
2022-08-26T08:38:28.345Z,98054.50
2022-08-26T08:40:54.944Z,98057.34
2022-08-26T08:43:41.974Z,98054.78
2022-08-26T08:46:15.279Z,98051.22
2022-08-26T08:48:51.168Z,98043.41
2022-08-26T08:51:39.855Z,98047.75
2022-08-26T08:54:08.446Z,98038.09
2022-08-26T08:56:37.669Z,98038.41
2022-08-26T08:59:20.258Z,98039.34
2022-08-26T09:02:05.608Z,98036.34
2022-08-26T09:05:15.247Z,98034.47
2022-08-26T09:07:50.827Z,98034.47
2022-08-26T09:10:24.564Z,98028.03
2022-08-26T09:12:52.303Z,98032.56
2022-08-26T09:15:36.312Z,98026.78
2022-08-26T09:18:11.121Z,98026.22
2022-08-26T09:20:56.043Z,98020.00
2022-08-26T09:23:22.948Z,98020.53
2022-08-26T09:25:55.761Z,98016.97
2022-08-26T09:28:24.512Z,98013.19
2022-08-26T09:31:36.927Z,98014.19
2022-08-26T09:34:22.384Z,98008.41
2022-08-26T09:36:51.563Z,98005.78
2022-08-26T09:39:24.188Z,98002.16
2022-08-26T09:42:11.391Z,97996.00
2022-08-26T09:45:06.481Z,97997.38
2022-08-26T09:47:38.257Z,97993.16
2022-08-26T09:50:18.505Z,97986.19
2022-08-26T09:52:45.074Z,97986.78
2022-08-26T09:55:15.601Z,97981.97
2022-08-26T09:57:54.962Z,97969.03
2022-08-26T10:00:30.213Z,97965.19
2022-08-26T10:03:02.673Z,97962.91
2022-08-26T10:06:01.022Z,97958.47
2022-08-26T10:08:38.654Z,97947.75
2022-08-26T10:11:18.128Z,97936.00
2022-08-26T10:13:51.279Z,97932.13
2022-08-26T10:16:23.616Z,97921.97
2022-08-26T10:19:17.027Z,97922.41
2022-08-26T10:22:01.812Z,97916.00
2022-08-26T10:24:35.223Z,97919.41
2022-08-26T10:27:24.444Z,97907.09
2022-08-26T10:29:57.283Z,97903.44
2022-08-26T10:32:31.455Z,97901.78
2022-08-26T10:34:58.240Z,97901.59
2022-08-26T10:37:41.507Z,97894.16
2022-08-26T10:40:20.213Z,97893.94
2022-08-26T10:42:58.379Z,97886.44
2022-08-26T10:45:27.762Z,97883.91
2022-08-26T10:48:05.250Z,97891.56
2022-08-26T10:50:40.212Z,97897.44
2022-08-26T10:53:37.836Z,97885.09
2022-08-26T10:56:22.688Z,97879.78
2022-08-26T10:59:21.713Z,97886.34
2022-08-26T11:02:03.875Z,97889.38
2022-08-26T11:04:49.515Z,97880.59
2022-08-26T11:07:38.049Z,97871.72
2022-08-26T11:10:16.806Z,97867.53
2022-08-26T11:12:45.309Z,97875.63
2022-08-26T11:15:24.663Z,97877.25
2022-08-26T11:17:51.494Z,97877.03
2022-08-26T11:20:31.093Z,97875.91
2022-08-26T11:23:23.152Z,97886.91
2022-08-26T11:25:56.293Z,97882.66
2022-08-26T11:28:48.063Z,97861.66
2022-08-26T11:31:27.084Z,97868.91
2022-08-26T11:34:02.002Z,97860.16
2022-08-26T11:36:37.426Z,97850.25
2022-08-26T11:39:31.018Z,97846.00
2022-08-26T11:42:14.846Z,97840.75
2022-08-26T11:44:49.334Z,97836.94
2022-08-26T11:47:24.753Z,97832.63
2022-08-26T11:50:06.559Z,97830.31
2022-08-26T11:52:33.066Z,97835.09
2022-08-26T11:55:11.020Z,97829.94
2022-08-26T11:57:47.505Z,97825.31
2022-08-26T12:00:33.601Z,97818.84
2022-08-26T12:03:05.585Z,97820.47
2022-08-26T12:05:37.441Z,97813.31
2022-08-26T12:08:13.250Z,97813.56
2022-08-26T12:10:40.260Z,97808.97
2022-08-26T12:13:07.964Z,97824.63
2022-08-26T12:15:35.673Z,97823.63
2022-08-26T12:18:20.688Z,97824.69
2022-08-26T12:20:58.346Z,97825.13
2022-08-26T12:23:35.270Z,97815.59
2022-08-26T12:26:10.962Z,97817.88
2022-08-26T12:28:47.037Z,97813.44
2022-08-26T12:31:21.164Z,97811.94
2022-08-26T12:33:48.799Z,97811.63
2022-08-26T12:36:21.602Z,97810.22
2022-08-26T12:38:48.618Z,97797.41
2022-08-26T12:41:41.518Z,97797.91
2022-08-26T12:44:08.030Z,97792.81
2022-08-26T12:46:34.866Z,97790.53
2022-08-26T12:49:01.789Z,97797.09
2022-08-26T12:51:32.050Z,97789.28
2022-08-26T12:53:59.282Z,97791.22
2022-08-26T12:56:39.553Z,97788.75
2022-08-26T12:59:20.961Z,97777.38
2022-08-26T13:01:49.372Z,97780.22
2022-08-26T13:04:40.507Z,97785.44
2022-08-26T13:07:24.168Z,97794.28
2022-08-26T13:09:53.735Z,97782.63
2022-08-26T13:12:53.168Z,97772.97
2022-08-26T13:15:19.629Z,97765.75
2022-08-26T13:17:46.112Z,97761.53
2022-08-26T13:20:12.569Z,97758.59
2022-08-26T13:25:06.029Z,97756.81
2022-08-26T13:27:32.709Z,97775.81
2022-08-26T13:29:59.790Z,97760.59
2022-08-26T13:32:27.485Z,97764.53
2022-08-26T13:34:56.295Z,97765.88
2022-08-26T13:37:24.502Z,97754.47
2022-08-26T13:40:01.624Z,97763.06
2022-08-26T13:42:28.308Z,97761.47
2022-08-26T13:44:58.001Z,97773.19
2022-08-26T13:47:25.948Z,97772.47
2022-08-26T13:49:54.386Z,97771.81
2022-08-26T13:52:27.294Z,97776.38
2022-08-26T13:55:00.058Z,97785.47
2022-08-26T13:57:28.330Z,97789.81
2022-08-26T13:59:56.470Z,97803.72
2022-08-26T14:02:23.028Z,97808.28
2022-08-26T14:04:49.530Z,97807.25
2022-08-26T14:07:16.101Z,97811.28
2022-08-26T14:09:42.545Z,97792.94
2022-08-26T14:12:09.035Z,97789.00
2022-08-26T14:14:35.533Z,97792.16
2022-08-26T14:17:02.249Z,97802.34
2022-08-26T14:19:30.037Z,97805.75
2022-08-26T14:21:57.244Z,97812.25
2022-08-26T14:24:23.702Z,97801.25
2022-08-26T14:26:50.122Z,97797.50
2022-08-26T14:29:16.914Z,97805.34
2022-08-26T14:31:44.025Z,97815.84
2022-08-26T14:34:12.511Z,97826.47
2022-08-26T14:36:39.013Z,97836.09
2022-08-26T14:39:08.719Z,97837.47
2022-08-26T14:41:53.819Z,97825.78
2022-08-26T14:44:24.485Z,97843.75
2022-08-26T14:46:53.091Z,97852.22
2022-08-26T14:49:21.257Z,97846.44
2022-08-26T14:51:48.245Z,97849.97
2022-08-26T14:54:16.418Z,97854.81
2022-08-26T14:56:51.941Z,97858.00
2022-08-26T14:59:33.839Z,97864.28
2022-08-26T15:02:00.799Z,97878.69
2022-08-26T15:04:27.974Z,97896.59
2022-08-26T15:06:56.125Z,97907.47
2022-08-26T15:09:23.587Z,97911.09
2022-08-26T15:11:50.642Z,97913.03
2022-08-26T15:14:19.113Z,97901.94
2022-08-26T15:16:48.438Z,97896.13
2022-08-26T15:19:15.924Z,97899.72
2022-08-26T15:21:43.330Z,97900.53
2022-08-26T15:24:09.870Z,97888.50
2022-08-26T15:26:36.355Z,97894.44
2022-08-26T15:29:05.141Z,97890.72
2022-08-26T15:31:32.562Z,97888.09
2022-08-26T15:34:03.107Z,97882.41
2022-08-26T15:36:31.151Z,97877.56
2022-08-26T15:38:59.497Z,97865.66
2022-08-26T15:41:27.393Z,97862.34
2022-08-26T15:43:53.818Z,97863.16
2022-08-26T15:46:20.314Z,97859.97
2022-08-26T15:48:47.200Z,97842.41
2022-08-26T15:51:27.087Z,97844.56
2022-08-26T15:53:56.238Z,97841.34
2022-08-26T15:56:27.659Z,97839.09
2022-08-26T15:58:56.328Z,97838.09
2022-08-26T16:01:27.352Z,97840.00
2022-08-26T16:03:55.713Z,97829.97
2022-08-26T16:06:24.070Z,97828.88
2022-08-26T16:08:50.625Z,97826.06
2022-08-26T16:11:19.770Z,97829.16
2022-08-26T16:13:46.845Z,97826.84
2022-08-26T16:16:13.726Z,97819.03
2022-08-26T16:18:40.757Z,97828.06
2022-08-26T16:21:13.507Z,97822.22
2022-08-26T16:23:43.200Z,97832.41
2022-08-26T16:26:25.986Z,97839.81
2022-08-26T16:28:53.632Z,97839.81
2022-08-26T16:31:21.496Z,97840.13
2022-08-26T16:33:47.924Z,97842.00
2022-08-26T16:36:15.094Z,97837.50
2022-08-26T16:38:45.989Z,97841.00
2022-08-26T16:41:12.402Z,97834.22
2022-08-26T16:43:38.820Z,97831.72
2022-08-26T16:46:06.945Z,97828.88
2022-08-26T16:48:34.243Z,97818.75
2022-08-26T16:51:00.784Z,97816.13
2022-08-26T16:53:27.313Z,97815.06
2022-08-26T16:55:53.930Z,97809.72
2022-08-26T16:58:22.145Z,97809.72
2022-08-26T17:00:49.170Z,97811.97
2022-08-26T17:03:15.854Z,97814.84
2022-08-26T17:05:42.313Z,97813.75
2022-08-26T17:08:08.917Z,97804.34
2022-08-26T17:10:35.449Z,97806.38
2022-08-26T17:13:01.930Z,97822.09
2022-08-26T17:15:28.523Z,97816.38
2022-08-26T17:17:56.066Z,97821.16
2022-08-26T17:20:24.441Z,97841.13
2022-08-26T17:22:53.182Z,97864.31
2022-08-26T17:25:23.942Z,97902.75
2022-08-26T17:27:50.804Z,97923.69
2022-08-26T17:30:17.862Z,97919.66
2022-08-26T17:32:44.975Z,97917.72
2022-08-26T17:35:13.106Z,97908.31
2022-08-26T17:37:40.227Z,97917.50
2022-08-26T17:40:12.105Z,97906.78
2022-08-26T17:42:39.473Z,97903.47
2022-08-26T17:45:07.472Z,97906.78
2022-08-26T17:47:34.494Z,97898.47
2022-08-26T17:50:01.620Z,97890.16
2022-08-26T17:52:28.991Z,97886.69
2022-08-26T17:54:59.052Z,97886.34
2022-08-26T17:57:25.823Z,97887.66
2022-08-26T17:59:53.497Z,97890.16
2022-08-26T18:02:21.033Z,97893.59
2022-08-26T18:04:47.679Z,97892.66
2022-08-26T18:07:15.177Z,97896.09
2022-08-26T18:09:41.842Z,97896.44
2022-08-26T18:12:08.639Z,97894.06
2022-08-26T18:14:35.429Z,97900.13
2022-08-26T18:17:02.303Z,97901.31
2022-08-26T18:19:29.766Z,97906.19
2022-08-26T18:21:56.783Z,97907.13
2022-08-26T18:24:24.492Z,97911.66
2022-08-26T18:26:51.109Z,97910.00
2022-08-26T18:29:19.546Z,97912.72
2022-08-26T18:31:46.600Z,97913.78
2022-08-26T18:34:15.352Z,97911.16
2022-08-26T18:36:43.000Z,97912.34
2022-08-26T18:39:11.782Z,97915.31
2022-08-26T18:41:42.533Z,97910.53
2022-08-26T18:44:13.443Z,97921.81
2022-08-26T18:46:40.717Z,97923.72
2022-08-26T18:49:08.298Z,97918.63
2022-08-26T18:51:35.587Z,97917.41
2022-08-26T18:54:05.499Z,97915.00
2022-08-26T18:56:33.632Z,97923.09
2022-08-26T18:59:00.482Z,97915.25
2022-08-26T19:01:29.032Z,97917.63
2022-08-26T19:03:59.366Z,97915.00
2022-08-26T19:06:28.252Z,97915.59
2022-08-26T19:08:54.963Z,97919.06
2022-08-26T19:11:32.409Z,97927.16
2022-08-26T19:14:06.532Z,97924.31
2022-08-26T19:16:33.520Z,97924.19
2022-08-26T19:19:01.808Z,97922.16
2022-08-26T19:21:29.728Z,97925.84
2022-08-26T19:23:58.723Z,97922.63
2022-08-26T19:26:25.987Z,97916.47
2022-08-26T19:28:52.937Z,97922.50
2022-08-26T19:31:19.915Z,97927.16
2022-08-26T19:33:46.662Z,97928.22
2022-08-26T19:36:17.889Z,97930.09
2022-08-26T19:38:45.764Z,97922.34
2022-08-26T19:41:34.098Z,97922.56
2022-08-26T19:44:08.006Z,97916.31
2022-08-26T19:46:35.949Z,97919.91
2022-08-26T19:49:02.934Z,97928.69
2022-08-26T19:51:31.911Z,97931.31
2022-08-26T19:54:00.570Z,97928.69
2022-08-26T19:56:28.293Z,97936.97
2022-08-26T19:58:55.674Z,97933.63
2022-08-26T20:01:23.081Z,97939.06
2022-08-26T20:03:49.958Z,97937.50
2022-08-26T20:06:17.111Z,97928.94
2022-08-26T20:08:44.246Z,97926.44
2022-08-26T20:11:15.174Z,97927.50
2022-08-26T20:13:42.288Z,97930.84
2022-08-26T20:16:10.529Z,97934.28
2022-08-26T20:18:55.708Z,97923.72
2022-08-26T20:21:28.293Z,97931.69
2022-08-26T20:23:58.326Z,97930.97
2022-08-26T20:26:27.066Z,97940.56
2022-08-26T20:28:54.011Z,97952.72
2022-08-26T20:31:21.015Z,97962.34
2022-08-26T20:33:48.186Z,97968.50
2022-08-26T20:36:15.562Z,97983.84
2022-08-26T20:38:42.216Z,98000.81
2022-08-26T20:41:08.773Z,98015.22
2022-08-26T20:43:35.217Z,98025.34
2022-08-26T20:46:01.859Z,98024.75
2022-08-26T20:48:28.430Z,98023.28
2022-08-26T20:51:01.760Z,98030.59
2022-08-26T20:53:29.047Z,98035.84
2022-08-26T20:56:00.427Z,98032.09
2022-08-26T20:58:27.403Z,98023.09
2022-08-26T21:00:54.148Z,98021.66
2022-08-26T21:03:20.839Z,98024.06
2022-08-26T21:05:47.461Z,98022.28
2022-08-26T21:08:13.900Z,98029.19
2022-08-26T21:10:40.538Z,98033.28
2022-08-26T21:13:07.712Z,98034.69
2022-08-26T21:15:35.153Z,98028.97
2022-08-26T21:18:01.714Z,98029.19
2022-08-26T21:20:28.181Z,98035.88
2022-08-26T21:22:54.643Z,98039.44
2022-08-26T21:25:21.339Z,98034.19
2022-08-26T21:27:47.884Z,98038.38
2022-08-26T21:30:16.113Z,98035.88
2022-08-26T21:32:42.858Z,98033.28
2022-08-26T21:35:10.393Z,98030.44
2022-08-26T21:37:36.947Z,98030.44
2022-08-26T21:40:05.184Z,98033.75
2022-08-26T21:42:34.407Z,98035.44
2022-08-26T21:45:01.839Z,98032.94
2022-08-26T21:47:28.590Z,98034.59
2022-08-26T21:49:55.067Z,98026.84
2022-08-26T21:52:21.692Z,98019.00
2022-08-26T21:54:50.714Z,98022.59
2022-08-26T21:57:18.390Z,98019.97
2022-08-26T21:59:44.850Z,98019.97
2022-08-26T22:02:11.362Z,98022.69
2022-08-26T22:04:37.886Z,98018.31
2022-08-26T22:07:04.981Z,98015.91
2022-08-26T22:09:31.771Z,98022.28
2022-08-26T22:11:58.824Z,98018.09
2022-08-26T22:14:30.489Z,98023.53
2022-08-26T22:16:58.682Z,98008.06
2022-08-26T22:19:25.770Z,98014.22
2022-08-26T22:21:54.258Z,98007.25
2022-08-26T22:24:23.353Z,98005.06
2022-08-26T22:26:50.344Z,98008.63
2022-08-26T22:29:18.766Z,98005.34
2022-08-26T22:31:45.893Z,98000.47
2022-08-26T22:34:15.718Z,97994.84
2022-08-26T22:36:45.114Z,97992.34
2022-08-26T22:39:25.733Z,97990.53
2022-08-26T22:41:53.869Z,97991.59
2022-08-26T22:44:22.115Z,97983.25
2022-08-26T22:46:50.009Z,97972.97
2022-08-26T22:49:17.365Z,97975.81
2022-08-26T22:51:45.331Z,97968.69
2022-08-26T22:54:11.836Z,97966.28
2022-08-26T22:56:39.595Z,97966.50
2022-08-26T22:59:07.799Z,97967.22
2022-08-26T23:01:38.948Z,97963.78
2022-08-26T23:04:07.137Z,97962.94
2022-08-26T23:06:38.528Z,97947.38
2022-08-26T23:09:06.223Z,97950.28
2022-08-26T23:11:33.614Z,97951.44
2022-08-26T23:14:06.420Z,97949.78
2022-08-26T23:16:39.601Z,97951.44
2022-08-26T23:19:07.171Z,97948.09
2022-08-26T23:21:33.785Z,97946.44
2022-08-26T23:24:01.100Z,97939.44
2022-08-26T23:26:28.250Z,97939.34
2022-08-26T23:28:55.144Z,97942.88
2022-08-26T23:31:21.651Z,97939.44
2022-08-26T23:34:06.773Z,97939.34
2022-08-26T23:36:34.959Z,97941.22
2022-08-26T23:39:02.189Z,97937.97
2022-08-26T23:41:28.652Z,97934.44
2022-08-26T23:43:55.185Z,97943.81
2022-08-26T23:46:21.649Z,97938.59
2022-08-26T23:48:48.397Z,97949.78
2022-08-26T23:51:33.540Z,97954.81
2022-08-26T23:54:00.078Z,97949.47
2022-08-26T23:56:26.846Z,97955.31
2022-08-26T23:58:54.199Z,97951.03
